Clarion, Iowa
Current Conditions -  °F | °C
As of 12:55 AM on Sunday 21 Dec 2014 (Local Time) from KCAV Reporting Station
Haze Haze  
Wind Chill: 25°   Ceiling: 600
Heat Index: 34°   Visibility: 3mi
Dew Point: 34°   Wind: 13mph
Humidity: 100%   Direction: 150°SSE
Pressure: 30.04"   Gusts: NA
Location:  42.73°N, 93.73°W
Report Text: KCAV 210655Z AUTO 15011KT 3SM BR OVC006 01/01 A3004 RMK AO2
Loading
Personal Weather Stations






























Interactive Weather Map New forecast layout! Learn more

10-Day Weather Forecast

Advertisements
Track Severe Weather on mobile